createdAt,value
2022-11-20T00:01:30.757Z,61.87
2022-11-20T00:03:59.604Z,67.83
2022-11-20T00:06:29.011Z,64.57
2022-11-20T00:09:01.255Z,68.30
2022-11-20T00:11:31.150Z,64.60
2022-11-20T00:14:02.265Z,65.30
2022-11-20T00:16:32.692Z,60.63
2022-11-20T00:19:00.249Z,71.17
2022-11-20T00:21:28.932Z,66.77
2022-11-20T00:23:57.818Z,66.07
2022-11-20T00:26:27.124Z,69.60
2022-11-20T00:28:59.552Z,61.77
2022-11-20T00:31:27.640Z,68.33
2022-11-20T00:33:55.479Z,65.47
2022-11-20T00:36:26.397Z,59.30
2022-11-20T00:38:56.879Z,59.93
2022-11-20T00:41:26.383Z,59.83
2022-11-20T00:43:55.751Z,62.43
2022-11-20T00:46:25.611Z,62.10
2022-11-20T00:48:53.724Z,62.00
2022-11-20T00:51:24.216Z,63.33
2022-11-20T00:53:52.107Z,60.07
2022-11-20T00:56:20.596Z,60.10
2022-11-20T00:58:50.011Z,65.43
2022-11-20T01:01:25.847Z,64.67
2022-11-20T01:03:55.281Z,59.47
2022-11-20T01:06:26.753Z,69.83
2022-11-20T01:08:56.849Z,63.23
2022-11-20T01:11:27.103Z,67.70
2022-11-20T01:13:56.143Z,70.50
2022-11-20T01:16:28.106Z,64.63
2022-11-20T01:18:59.429Z,62.37
2022-11-20T01:21:32.345Z,64.03
2022-11-20T01:24:00.856Z,65.63
2022-11-20T01:26:30.763Z,66.20
2022-11-20T01:28:59.355Z,67.17
2022-11-20T01:31:35.330Z,70.37
2022-11-20T01:34:07.297Z,72.03
2022-11-20T01:36:37.706Z,70.53
2022-11-20T01:39:08.432Z,68.37
2022-11-20T01:41:54.591Z,68.40
2022-11-20T01:44:42.914Z,76.27
2022-11-20T01:47:15.466Z,68.80
2022-11-20T01:49:56.145Z,68.43
2022-11-20T01:52:28.978Z,69.67
2022-11-20T01:55:03.139Z,75.40
2022-11-20T01:57:32.945Z,73.93
2022-11-20T02:00:12.910Z,72.53
2022-11-20T02:02:44.277Z,76.40
2022-11-20T02:05:30.492Z,77.23
2022-11-20T02:07:59.133Z,73.43
2022-11-20T02:10:28.962Z,74.70
2022-11-20T02:13:15.591Z,74.00
2022-11-20T02:15:44.458Z,74.63
2022-11-20T02:18:14.794Z,77.17
2022-11-20T02:20:48.575Z,74.33
2022-11-20T02:23:30.957Z,78.07
2022-11-20T02:26:02.064Z,74.23
2022-11-20T02:28:29.541Z,81.93
2022-11-20T02:30:57.439Z,76.10
2022-11-20T02:33:24.907Z,74.37
2022-11-20T02:35:52.504Z,76.53
2022-11-20T02:38:20.585Z,78.57
2022-11-20T02:40:52.691Z,79.73
2022-11-20T02:43:23.077Z,79.17
2022-11-20T02:45:50.785Z,78.73
2022-11-20T02:48:18.309Z,74.17
2022-11-20T02:50:46.022Z,84.63
2022-11-20T02:53:13.336Z,76.97
2022-11-20T02:55:40.981Z,71.00
2022-11-20T02:58:08.317Z,74.33
2022-11-20T03:00:36.628Z,70.57
2022-11-20T03:03:03.973Z,75.57
2022-11-20T03:05:31.583Z,73.27
2022-11-20T03:07:58.989Z,70.97
2022-11-20T03:10:26.694Z,71.33
2022-11-20T03:12:57.089Z,66.57
2022-11-20T03:15:25.209Z,73.07
2022-11-20T03:17:57.273Z,65.70
2022-11-20T03:20:25.051Z,63.27
2022-11-20T03:22:54.684Z,63.03
2022-11-20T03:25:23.969Z,64.63
2022-11-20T03:27:51.528Z,61.10
2022-11-20T03:30:19.162Z,66.47
2022-11-20T03:32:46.879Z,70.67
2022-11-20T03:35:14.649Z,67.00
2022-11-20T03:37:42.133Z,60.03
2022-11-20T03:40:10.315Z,65.87
2022-11-20T03:42:46.761Z,62.20
2022-11-20T03:45:19.256Z,63.37
2022-11-20T03:47:47.081Z,63.70
2022-11-20T03:50:15.236Z,64.53
2022-11-20T03:52:43.235Z,62.37
2022-11-20T03:55:11.205Z,61.70
2022-11-20T03:57:38.863Z,67.63
2022-11-20T04:00:07.660Z,61.70
2022-11-20T04:02:35.004Z,60.97
2022-11-20T04:05:02.522Z,62.10
2022-11-20T04:07:29.944Z,63.80
2022-11-20T04:09:57.618Z,66.77
2022-11-20T04:12:24.884Z,70.73
2022-11-20T04:14:52.454Z,64.93
2022-11-20T04:17:19.733Z,67.60
2022-11-20T04:19:47.683Z,64.60
2022-11-20T04:22:15.769Z,62.67
2022-11-20T04:24:43.577Z,64.33
2022-11-20T04:27:10.914Z,63.23
2022-11-20T04:29:38.678Z,66.87
2022-11-20T04:32:06.178Z,62.73
2022-11-20T04:34:33.785Z,63.63
2022-11-20T04:37:02.191Z,58.73
2022-11-20T04:39:29.760Z,65.10
2022-11-20T04:42:15.698Z,65.97
2022-11-20T04:44:43.452Z,63.83
2022-11-20T04:47:10.762Z,68.33
2022-11-20T04:49:38.805Z,64.40
2022-11-20T04:52:06.243Z,71.43
2022-11-20T04:54:33.932Z,65.57
2022-11-20T04:57:01.226Z,74.87
2022-11-20T04:59:28.883Z,66.87
2022-11-20T05:01:56.510Z,65.33
2022-11-20T05:04:24.430Z,76.40
2022-11-20T05:06:52.033Z,69.37
2022-11-20T05:09:19.841Z,71.33
2022-11-20T05:11:51.301Z,68.93
2022-11-20T05:14:19.289Z,77.50
2022-11-20T05:16:46.672Z,69.97
2022-11-20T05:19:14.440Z,70.30
2022-11-20T05:21:41.859Z,69.10
2022-11-20T05:24:09.673Z,66.13
2022-11-20T05:26:37.068Z,64.27
2022-11-20T05:29:05.012Z,70.03
2022-11-20T05:31:32.436Z,65.67
2022-11-20T05:34:00.170Z,64.30
2022-11-20T05:36:27.748Z,60.67
2022-11-20T05:39:01.059Z,62.07
2022-11-20T05:41:29.351Z,59.63
2022-11-20T05:43:58.904Z,63.97
2022-11-20T05:46:29.129Z,63.53
2022-11-20T05:48:58.715Z,66.40
2022-11-20T05:51:29.037Z,66.33
2022-11-20T05:53:59.964Z,67.37
2022-11-20T05:56:27.531Z,67.17
2022-11-20T05:58:55.389Z,63.67
2022-11-20T06:01:27.261Z,65.40
2022-11-20T06:03:55.728Z,60.97
2022-11-20T06:06:24.327Z,71.03
2022-11-20T06:08:52.012Z,66.63
2022-11-20T06:11:19.584Z,67.73
2022-11-20T06:13:48.192Z,65.03
2022-11-20T06:16:19.094Z,67.27
2022-11-20T06:18:47.945Z,71.03
2022-11-20T06:21:22.663Z,72.47
2022-11-20T06:23:52.066Z,72.53
2022-11-20T06:26:24.825Z,73.00
2022-11-20T06:28:54.057Z,70.60
2022-11-20T06:31:24.260Z,74.37
2022-11-20T06:33:53.414Z,71.67
2022-11-20T06:36:23.173Z,75.33
2022-11-20T06:38:51.276Z,70.27
2022-11-20T06:41:21.245Z,72.60
2022-11-20T06:43:50.308Z,72.17
2022-11-20T06:46:19.672Z,66.60
2022-11-20T06:48:49.057Z,67.30
2022-11-20T06:51:17.174Z,75.50
2022-11-20T06:53:45.008Z,74.40
2022-11-20T06:56:12.506Z,77.53
2022-11-20T06:58:40.252Z,70.67
2022-11-20T07:01:12.266Z,68.33
2022-11-20T07:03:41.493Z,75.37
2022-11-20T07:06:09.595Z,70.80
2022-11-20T07:08:38.214Z,74.37
2022-11-20T07:11:07.838Z,74.30
2022-11-20T07:13:35.881Z,80.70
2022-11-20T07:16:06.644Z,74.70
2022-11-20T07:18:34.523Z,64.67
2022-11-20T07:21:09.205Z,67.87
2022-11-20T07:23:38.806Z,69.30
2022-11-20T07:26:08.669Z,70.00
2022-11-20T07:28:37.575Z,72.30
2022-11-20T07:31:07.853Z,74.97
2022-11-20T07:33:35.920Z,66.70
2022-11-20T07:36:04.040Z,71.37
2022-11-20T07:38:32.344Z,73.63
2022-11-20T07:41:02.677Z,67.90
2022-11-20T07:43:33.906Z,75.83
2022-11-20T07:46:05.977Z,66.50
2022-11-20T07:48:33.758Z,74.47
2022-11-20T07:51:01.118Z,67.53
2022-11-20T07:53:29.086Z,65.13
2022-11-20T07:56:00.125Z,71.43
2022-11-20T07:58:29.779Z,64.63
2022-11-20T08:00:58.216Z,67.07
2022-11-20T08:03:26.246Z,61.47
2022-11-20T08:05:53.738Z,64.87
2022-11-20T08:08:24.142Z,63.07
2022-11-20T08:10:51.558Z,65.80
2022-11-20T08:13:37.645Z,66.57
2022-11-20T08:16:07.041Z,65.33
2022-11-20T08:18:35.784Z,61.17
2022-11-20T08:21:06.563Z,62.13
2022-11-20T08:23:36.598Z,65.53
2022-11-20T08:26:04.766Z,63.93
2022-11-20T08:28:32.549Z,70.17
2022-11-20T08:31:03.484Z,60.77
2022-11-20T08:33:33.653Z,60.77
2022-11-20T08:36:05.138Z,64.53
2022-11-20T08:38:35.470Z,62.80
2022-11-20T08:41:24.674Z,65.10
2022-11-20T08:44:07.056Z,64.90
2022-11-20T08:46:42.649Z,59.30
2022-11-20T08:49:13.568Z,60.93
2022-11-20T08:51:41.916Z,61.50
2022-11-20T08:54:10.100Z,58.73
2022-11-20T08:56:38.205Z,64.77
2022-11-20T08:59:26.878Z,63.73
2022-11-20T09:01:55.132Z,63.67
2022-11-20T09:04:23.887Z,65.23
2022-11-20T09:06:53.840Z,67.97
2022-11-20T09:09:21.979Z,66.83
2022-11-20T09:11:52.871Z,72.83
2022-11-20T09:14:20.685Z,62.33
2022-11-20T09:16:48.432Z,70.43
2022-11-20T09:22:04.528Z,72.40
2022-11-20T09:24:32.309Z,73.83
2022-11-20T09:27:02.252Z,71.27
2022-11-20T09:29:30.194Z,66.83
2022-11-20T09:31:57.875Z,68.67
2022-11-20T09:34:25.928Z,62.70
2022-11-20T09:36:53.402Z,67.83
2022-11-20T09:39:21.369Z,69.90
2022-11-20T09:41:59.817Z,66.13
2022-11-20T09:44:49.295Z,66.23
2022-11-20T09:47:55.977Z,69.10
2022-11-20T09:51:11.107Z,63.37
2022-11-20T09:53:48.262Z,73.47
2022-11-20T09:56:19.761Z,61.47
2022-11-20T09:58:55.751Z,69.03
2022-11-20T10:01:32.947Z,65.67
2022-11-20T10:04:10.915Z,71.63
2022-11-20T10:07:04.126Z,71.60
2022-11-20T10:09:54.023Z,72.90
2022-11-20T10:12:57.115Z,71.80
2022-11-20T10:15:46.902Z,67.63
2022-11-20T10:18:58.964Z,73.40
2022-11-20T10:21:31.860Z,69.40
2022-11-20T10:24:12.134Z,70.50
2022-11-20T10:26:54.988Z,71.97
2022-11-20T10:29:54.892Z,67.57
2022-11-20T10:32:31.360Z,70.27
2022-11-20T10:35:05.937Z,59.63
2022-11-20T10:37:36.326Z,59.80
2022-11-20T10:40:43.995Z,61.10
2022-11-20T10:43:12.828Z,62.80
2022-11-20T10:46:18.989Z,62.63
2022-11-20T10:48:47.466Z,62.33
2022-11-20T10:51:52.797Z,64.27
2022-11-20T10:54:34.080Z,61.50
2022-11-20T10:57:27.648Z,65.37
2022-11-20T10:59:55.300Z,65.13
2022-11-20T11:02:26.423Z,72.13
2022-11-20T11:04:55.450Z,66.97
2022-11-20T11:07:37.535Z,67.67
2022-11-20T11:10:32.010Z,62.50
2022-11-20T11:12:59.998Z,65.33
2022-11-20T11:15:39.381Z,64.23
2022-11-20T11:18:11.151Z,65.93
2022-11-20T11:20:39.778Z,66.93
2022-11-20T11:23:40.724Z,66.77
2022-11-20T11:26:31.158Z,66.60
2022-11-20T11:29:04.461Z,66.00
2022-11-20T11:31:35.681Z,68.87
2022-11-20T11:34:06.986Z,70.00
2022-11-20T11:36:37.015Z,69.23
2022-11-20T11:39:07.791Z,73.83
2022-11-20T11:41:38.982Z,69.23
2022-11-20T11:44:41.774Z,67.77
2022-11-20T11:47:28.552Z,66.13
2022-11-20T11:50:24.899Z,67.87
2022-11-20T11:53:13.866Z,76.10
2022-11-20T11:56:08.844Z,70.47
2022-11-20T11:58:52.040Z,68.00
2022-11-20T12:01:45.741Z,67.80
2022-11-20T12:04:40.237Z,67.87
2022-11-20T12:10:24.096Z,64.60
2022-11-20T12:13:32.152Z,66.70
2022-11-20T12:16:00.278Z,68.40
2022-11-20T12:18:29.660Z,67.93
2022-11-20T12:21:22.051Z,67.50
2022-11-20T12:24:09.516Z,69.83
2022-11-20T12:26:50.200Z,63.27
2022-11-20T12:29:53.409Z,67.03
2022-11-20T12:32:23.918Z,65.83
2022-11-20T12:35:23.945Z,61.60
2022-11-20T12:38:29.223Z,67.30
2022-11-20T12:41:51.366Z,64.47
2022-11-20T12:45:11.861Z,69.40
2022-11-20T12:48:01.481Z,61.40
2022-11-20T12:51:13.966Z,67.97
2022-11-20T12:54:05.759Z,57.10
2022-11-20T12:56:51.150Z,62.47
2022-11-20T12:59:27.155Z,56.47
2022-11-20T13:23:40.283Z,65.03
2022-11-20T13:26:35.567Z,70.40
2022-11-20T13:29:22.219Z,102.83
2022-11-20T13:31:53.506Z,60.23
2022-11-20T13:34:27.622Z,60.83
2022-11-20T13:36:59.429Z,56.80
2022-11-20T13:39:37.143Z,61.10
2022-11-20T13:42:13.866Z,60.10
2022-11-20T13:44:50.008Z,54.00
2022-11-20T13:47:41.417Z,57.10
2022-11-20T13:50:11.751Z,52.90
2022-11-20T13:53:16.837Z,55.47
2022-11-20T13:55:55.477Z,62.77
2022-11-20T13:58:52.865Z,55.73
2022-11-20T14:01:32.885Z,70.43
2022-11-20T14:04:06.752Z,61.97
2022-11-20T14:06:47.711Z,56.60
2022-11-20T14:09:33.752Z,55.97
2022-11-20T14:12:02.311Z,51.10
2022-11-20T14:14:32.829Z,52.53
2022-11-20T14:17:23.966Z,54.90
2022-11-20T14:19:56.049Z,54.87
2022-11-20T14:22:30.423Z,51.37
2022-11-20T14:25:24.763Z,59.97
2022-11-20T14:28:02.089Z,52.20
2022-11-20T14:30:39.222Z,58.63
2022-11-20T14:33:08.865Z,56.77
2022-11-20T14:35:42.108Z,54.87
2022-11-20T14:38:16.014Z,56.50
2022-11-20T14:40:45.556Z,58.43
2022-11-20T14:43:34.170Z,54.43
2022-11-20T14:46:09.093Z,59.67
2022-11-20T14:48:47.326Z,55.90
2022-11-20T14:51:38.698Z,59.97
2022-11-20T14:54:15.762Z,62.73
2022-11-20T14:57:05.455Z,67.47
2022-11-20T14:59:35.846Z,72.70
2022-11-20T15:02:13.169Z,69.40
2022-11-20T15:04:52.485Z,64.30
2022-11-20T15:07:34.062Z,64.57
2022-11-20T15:10:09.950Z,68.63
2022-11-20T15:12:47.614Z,73.40
2022-11-20T15:15:19.526Z,72.37
2022-11-20T15:17:48.244Z,75.67
2022-11-20T15:20:18.175Z,64.37
2022-11-20T15:22:46.744Z,75.87
2022-11-20T15:25:17.132Z,73.20
2022-11-20T15:27:47.654Z,66.43
2022-11-20T15:30:21.394Z,71.47
2022-11-20T15:32:49.839Z,61.63
2022-11-20T15:35:17.651Z,66.00
2022-11-20T15:37:45.929Z,63.30
2022-11-20T15:40:14.078Z,61.83
2022-11-20T15:43:02.533Z,56.73
2022-11-20T15:45:35.956Z,63.10
2022-11-20T15:48:04.609Z,67.43
2022-11-20T15:50:39.116Z,63.47
2022-11-20T15:53:07.976Z,73.97
2022-11-20T15:55:36.414Z,68.03
2022-11-20T15:58:05.097Z,69.80
2022-11-20T16:00:33.905Z,61.63
2022-11-20T16:03:02.329Z,69.07
2022-11-20T16:05:31.021Z,64.43
2022-11-20T16:07:59.191Z,72.57
2022-11-20T16:10:27.082Z,69.70
2022-11-20T16:13:13.476Z,64.07
2022-11-20T16:15:47.511Z,64.40
2022-11-20T16:18:22.373Z,63.10
2022-11-20T16:20:56.085Z,66.00
2022-11-20T16:23:24.907Z,70.37
2022-11-20T16:25:53.227Z,73.80
2022-11-20T16:28:22.085Z,73.27
2022-11-20T16:30:50.020Z,67.90
2022-11-20T16:33:18.596Z,74.43
2022-11-20T16:35:46.706Z,71.30
2022-11-20T16:38:15.253Z,69.77
2022-11-20T16:40:44.517Z,69.37
2022-11-20T16:43:15.555Z,71.07
2022-11-20T16:45:45.130Z,66.77
2022-11-20T16:48:15.184Z,72.87
2022-11-20T16:50:53.869Z,64.97
2022-11-20T16:53:22.975Z,65.17
2022-11-20T16:55:50.720Z,68.63
2022-11-20T16:58:19.655Z,70.10
2022-11-20T17:00:51.650Z,71.40
2022-11-20T17:03:21.275Z,72.47
2022-11-20T17:05:49.757Z,67.30
2022-11-20T17:08:18.426Z,71.30
2022-11-20T17:10:46.464Z,69.80
2022-11-20T17:13:14.908Z,69.53
2022-11-20T17:15:43.118Z,66.23
2022-11-20T17:18:11.292Z,65.77
2022-11-20T17:20:39.272Z,66.07
2022-11-20T17:23:09.104Z,67.30
2022-11-20T17:25:37.213Z,63.73
2022-11-20T17:28:06.407Z,68.27
2022-11-20T17:30:34.785Z,65.67
2022-11-20T17:33:03.688Z,65.13
2022-11-20T17:35:31.995Z,68.67
2022-11-20T17:38:00.404Z,70.17
2022-11-20T17:40:28.272Z,79.10
2022-11-20T17:42:57.002Z,78.13
2022-11-20T17:45:25.772Z,74.10
2022-11-20T17:47:54.103Z,73.17
2022-11-20T17:50:22.571Z,71.10
2022-11-20T17:52:50.893Z,74.83
2022-11-20T17:55:19.152Z,65.63
2022-11-20T17:57:54.177Z,70.60
2022-11-20T18:00:22.653Z,63.67
2022-11-20T18:02:51.863Z,70.40
2022-11-20T18:05:20.740Z,63.47
2022-11-20T18:07:53.318Z,103.03
2022-11-20T18:10:21.878Z,120.27
2022-11-20T18:12:50.633Z,106.87
2022-11-20T18:15:18.744Z,90.67
2022-11-20T18:17:47.057Z,74.37
2022-11-20T18:20:29.531Z,69.90
2022-11-20T18:22:59.075Z,65.50
2022-11-20T18:25:27.217Z,68.37
2022-11-20T18:27:57.545Z,67.10
2022-11-20T18:30:25.475Z,63.50
2022-11-20T18:32:53.821Z,67.43
2022-11-20T18:35:22.951Z,76.80
2022-11-20T18:37:51.638Z,82.50
2022-11-20T18:40:20.018Z,112.30
2022-11-20T18:43:06.759Z,72.13
2022-11-20T18:45:34.650Z,66.80
2022-11-20T18:48:03.199Z,68.03
2022-11-20T18:50:32.890Z,64.40
2022-11-20T18:53:03.134Z,76.23
2022-11-20T18:55:31.327Z,69.60
2022-11-20T18:58:00.072Z,70.77
2022-11-20T19:00:28.782Z,67.23
2022-11-20T19:02:57.974Z,74.67
2022-11-20T19:05:26.503Z,60.67
2022-11-20T19:07:55.626Z,67.80
2022-11-20T19:10:28.209Z,64.13
2022-11-20T19:12:59.239Z,61.10
2022-11-20T19:15:28.989Z,61.37
2022-11-20T19:17:59.078Z,55.53
2022-11-20T19:20:28.806Z,66.70
2022-11-20T19:22:57.885Z,62.73
2022-11-20T19:25:25.379Z,59.80
2022-11-20T19:27:54.136Z,59.33
2022-11-20T19:30:21.580Z,58.40
2022-11-20T19:32:49.688Z,57.27
2022-11-20T19:35:17.298Z,61.30
2022-11-20T19:37:45.886Z,58.13
2022-11-20T19:40:13.916Z,56.13
2022-11-20T19:42:42.173Z,58.57
2022-11-20T19:45:10.294Z,62.03
2022-11-20T19:48:06.840Z,65.23
2022-11-20T19:50:27.124Z,60.10
2022-11-20T19:52:58.664Z,58.03
2022-11-20T19:55:27.311Z,61.17
2022-11-20T19:57:55.896Z,64.53
2022-11-20T20:00:29.672Z,59.83
2022-11-20T20:03:01.868Z,57.87
2022-11-20T20:05:31.543Z,61.57
2022-11-20T20:07:59.733Z,61.30
2022-11-20T20:10:28.137Z,65.33
2022-11-20T20:12:56.651Z,58.40
2022-11-20T20:15:24.929Z,64.13
2022-11-20T20:17:53.760Z,65.80
2022-11-20T20:20:22.126Z,62.13
2022-11-20T20:22:50.774Z,65.50
2022-11-20T20:25:18.780Z,59.00
2022-11-20T20:27:47.281Z,60.53
2022-11-20T20:30:15.675Z,59.77
2022-11-20T20:32:43.927Z,63.93
2022-11-20T20:35:11.876Z,63.77
2022-11-20T20:37:40.886Z,59.10
2022-11-20T20:40:14.867Z,67.43
2022-11-20T20:42:43.991Z,58.93
2022-11-20T20:45:12.426Z,63.37
2022-11-20T20:47:42.013Z,61.90
2022-11-20T20:50:12.356Z,61.60
2022-11-20T20:52:43.680Z,61.73
2022-11-20T20:55:12.459Z,67.13
2022-11-20T20:57:42.012Z,66.60
2022-11-20T21:00:11.044Z,62.97
2022-11-20T21:02:39.572Z,67.23
2022-11-20T21:05:08.038Z,64.90
2022-11-20T21:07:56.493Z,64.87
2022-11-20T21:10:24.508Z,65.17
2022-11-20T21:12:53.221Z,67.73
2022-11-20T21:15:21.058Z,63.60
2022-11-20T21:17:49.657Z,67.00
2022-11-20T21:20:37.930Z,65.87
2022-11-20T21:23:10.477Z,71.13
2022-11-20T21:25:39.637Z,64.97
2022-11-20T21:28:08.966Z,67.10
2022-11-20T21:30:37.017Z,65.47
2022-11-20T21:33:05.504Z,69.87
2022-11-20T21:35:38.266Z,72.17
2022-11-20T21:38:07.158Z,77.40
2022-11-20T21:40:36.067Z,73.80
2022-11-20T21:43:04.665Z,71.50
2022-11-20T21:45:32.505Z,68.67
2022-11-20T21:48:00.960Z,69.17
2022-11-20T21:50:28.808Z,70.73
2022-11-20T21:52:56.968Z,75.40
2022-11-20T21:55:24.788Z,82.13
2022-11-20T21:57:52.966Z,63.73
2022-11-20T22:00:21.070Z,70.47
2022-11-20T22:02:49.299Z,63.73
2022-11-20T22:05:17.635Z,70.27
2022-11-20T22:07:46.378Z,71.17
2022-11-20T22:10:18.256Z,70.47
2022-11-20T22:12:47.014Z,77.77
2022-11-20T22:15:27.964Z,89.47
2022-11-20T22:18:15.320Z,82.13
2022-11-20T22:20:43.194Z,87.17
2022-11-20T22:23:11.613Z,83.07
2022-11-20T22:25:41.273Z,76.67
2022-11-20T22:28:10.783Z,75.37
2022-11-20T22:30:39.488Z,81.67
2022-11-20T22:33:13.061Z,80.13
2022-11-20T22:35:41.479Z,76.47
2022-11-20T22:38:10.007Z,82.80
2022-11-20T22:40:37.923Z,75.07
2022-11-20T22:43:06.072Z,77.10
2022-11-20T22:45:33.929Z,80.97
2022-11-20T22:48:02.047Z,84.27
2022-11-20T22:50:30.091Z,77.77
2022-11-20T22:52:58.525Z,79.13
2022-11-20T22:55:26.361Z,85.57
2022-11-20T22:57:54.572Z,85.23
2022-11-20T23:00:22.532Z,81.53
2022-11-20T23:02:50.540Z,82.87
2022-11-20T23:05:18.379Z,77.90
2022-11-20T23:07:46.630Z,78.47
2022-11-20T23:10:14.687Z,82.83
2022-11-20T23:12:42.807Z,81.27
2022-11-20T23:15:10.845Z,85.20
2022-11-20T23:17:38.956Z,83.37
2022-11-20T23:20:07.145Z,82.00
2022-11-20T23:22:35.285Z,79.87
2022-11-20T23:25:03.005Z,82.67
2022-11-20T23:27:31.260Z,77.53
2022-11-20T23:29:59.291Z,80.90
2022-11-20T23:32:27.254Z,88.87
2022-11-20T23:34:55.038Z,87.30
2022-11-20T23:37:23.250Z,77.60
2022-11-20T23:39:51.041Z,81.73
2022-11-20T23:42:19.261Z,78.13
2022-11-20T23:44:46.939Z,81.43
2022-11-20T23:47:15.321Z,88.20
2022-11-20T23:49:43.206Z,89.17
2022-11-20T23:52:12.041Z,89.33
2022-11-20T23:54:39.890Z,84.90
2022-11-20T23:57:08.027Z,81.83
2022-11-20T23:59:35.759Z,81.20
